createdAt,value
2023-05-12T00:00:13.101Z,84.95
2023-05-12T00:01:16.608Z,84.82
2023-05-12T00:02:18.652Z,85.08
2023-05-12T00:03:20.321Z,85.34
2023-05-12T00:04:22.150Z,85.50
2023-05-12T00:05:24.203Z,85.62
2023-05-12T00:06:26.232Z,85.54
2023-05-12T00:07:27.818Z,85.95
2023-05-12T00:08:29.953Z,86.32
2023-05-12T00:09:31.482Z,86.26
2023-05-12T00:10:35.350Z,86.35
2023-05-12T00:11:38.278Z,86.69
2023-05-12T00:12:40.054Z,86.63
2023-05-12T00:13:42.270Z,86.91
2023-05-12T00:14:46.263Z,87.10
2023-05-12T00:15:47.798Z,86.59
2023-05-12T00:16:51.865Z,87.12
2023-05-12T00:17:54.066Z,87.35
2023-05-12T00:18:55.814Z,87.35
2023-05-12T00:19:57.494Z,87.63
2023-05-12T00:20:59.218Z,87.24
2023-05-12T00:22:01.155Z,87.09
2023-05-12T00:23:02.870Z,86.80
2023-05-12T00:24:05.035Z,86.69
2023-05-12T00:25:07.146Z,86.67
2023-05-12T00:26:08.780Z,86.49
2023-05-12T00:27:10.437Z,86.51
2023-05-12T00:28:12.052Z,86.92
2023-05-12T00:29:14.002Z,86.93
2023-05-12T00:30:15.819Z,87.18
2023-05-12T00:31:17.587Z,87.11
2023-05-12T00:32:19.559Z,86.78
2023-05-12T00:33:21.340Z,87.14
2023-05-12T00:34:22.898Z,86.92
2023-05-12T00:35:24.671Z,87.35
2023-05-12T00:36:26.873Z,86.83
2023-05-12T00:37:28.818Z,86.63
2023-05-12T00:38:30.377Z,86.46
2023-05-12T00:39:32.395Z,86.05
2023-05-12T00:40:34.587Z,86.38
2023-05-12T00:41:36.721Z,86.41
2023-05-12T00:42:38.919Z,86.43
2023-05-12T00:43:40.507Z,86.38
2023-05-12T00:44:42.188Z,86.14
2023-05-12T00:45:44.266Z,85.93
2023-05-12T00:46:45.909Z,86.09
2023-05-12T00:47:47.678Z,85.99
2023-05-12T00:48:50.433Z,85.87
2023-05-12T00:49:52.747Z,86.33
2023-05-12T00:50:55.301Z,86.18
2023-05-12T00:51:59.085Z,85.99
2023-05-12T00:53:01.783Z,85.98
2023-05-12T00:54:03.887Z,85.80
2023-05-12T00:55:06.066Z,85.88
2023-05-12T00:56:08.437Z,86.35
2023-05-12T00:57:11.100Z,86.32
2023-05-12T00:58:12.967Z,86.03
2023-05-12T00:59:14.790Z,85.98
2023-05-12T01:00:17.207Z,85.84
2023-05-12T01:01:22.221Z,85.71
2023-05-12T01:02:27.748Z,85.99
2023-05-12T01:03:30.871Z,86.00
2023-05-12T01:04:35.716Z,85.66
2023-05-12T01:06:00.558Z,85.69
2023-05-12T01:07:15.007Z,85.54
2023-05-12T01:08:17.578Z,85.45
2023-05-12T01:09:20.482Z,85.68
2023-05-12T01:10:22.876Z,85.77
2023-05-12T01:11:25.092Z,85.79
2023-05-12T01:12:28.059Z,85.72
2023-05-12T01:13:31.500Z,86.00
2023-05-12T01:14:34.500Z,86.37
2023-05-12T01:15:38.188Z,86.14
2023-05-12T01:16:48.236Z,85.78
2023-05-12T01:17:56.216Z,85.78
2023-05-12T01:18:59.968Z,86.55
2023-05-12T01:20:04.505Z,86.29
2023-05-12T01:21:06.636Z,86.34
2023-05-12T01:22:10.056Z,86.15
2023-05-12T01:23:15.965Z,86.03
2023-05-12T01:24:23.764Z,86.14
2023-05-12T01:25:28.891Z,86.28
2023-05-12T01:26:32.404Z,86.27
2023-05-12T01:27:36.325Z,86.94
2023-05-12T01:28:41.166Z,87.29
2023-05-12T01:29:46.469Z,87.20
2023-05-12T01:30:49.205Z,87.47
2023-05-12T01:31:51.136Z,87.35
2023-05-12T01:32:53.476Z,86.97
2023-05-12T01:33:55.397Z,86.88
2023-05-12T01:34:57.632Z,86.56
2023-05-12T01:36:00.209Z,86.49
2023-05-12T01:37:02.596Z,86.52
2023-05-12T01:38:04.770Z,86.40
2023-05-12T01:39:10.182Z,86.26
2023-05-12T01:40:12.096Z,86.14
2023-05-12T01:41:13.852Z,86.23
2023-05-12T01:42:15.958Z,86.25
2023-05-12T01:43:17.785Z,86.49
2023-05-12T01:44:20.497Z,86.28
2023-05-12T01:45:22.271Z,86.31
2023-05-12T01:46:25.717Z,86.15
2023-05-12T01:47:29.831Z,86.26
2023-05-12T01:48:41.411Z,86.61
2023-05-12T01:49:44.513Z,86.80
2023-05-12T01:50:49.722Z,86.75
2023-05-12T01:51:55.689Z,86.56
2023-05-12T01:53:03.065Z,86.99
2023-05-12T01:54:06.508Z,87.21
2023-05-12T01:55:13.564Z,87.20
2023-05-12T01:56:21.861Z,87.20
2023-05-12T01:57:23.943Z,87.19
2023-05-12T01:58:29.440Z,87.27
2023-05-12T01:59:31.950Z,87.31
2023-05-12T02:00:34.703Z,87.32
2023-05-12T02:01:37.611Z,87.34
2023-05-12T02:02:42.948Z,87.11
2023-05-12T02:03:46.671Z,87.12
2023-05-12T02:04:49.361Z,87.40
2023-05-12T02:05:51.339Z,87.42
2023-05-12T02:06:53.568Z,87.13
2023-05-12T02:07:55.497Z,87.25
2023-05-12T02:08:57.702Z,87.11
2023-05-12T02:09:59.733Z,87.20
2023-05-12T02:11:09.678Z,87.36
2023-05-12T02:12:11.951Z,87.41
2023-05-12T02:13:14.014Z,87.47
2023-05-12T02:14:15.824Z,87.30
2023-05-12T02:15:17.672Z,87.16
2023-05-12T02:16:21.508Z,87.27
2023-05-12T02:17:25.889Z,87.01
2023-05-12T02:18:27.979Z,86.89
2023-05-12T02:19:30.405Z,86.93
2023-05-12T02:20:34.035Z,86.78
2023-05-12T02:21:35.778Z,86.51
2023-05-12T02:22:37.526Z,86.52
2023-05-12T02:23:39.734Z,86.96
2023-05-12T02:24:41.477Z,86.47
2023-05-12T02:25:43.657Z,86.40
2023-05-12T02:26:45.484Z,86.39
2023-05-12T02:27:48.902Z,86.56
2023-05-12T02:28:52.022Z,86.46
2023-05-12T02:29:54.861Z,86.32
2023-05-12T02:30:56.947Z,86.52
2023-05-12T02:32:00.295Z,86.53
2023-05-12T02:33:02.795Z,86.75
2023-05-12T02:34:06.747Z,86.63
2023-05-12T02:35:09.995Z,86.70
2023-05-12T02:36:13.819Z,86.55
2023-05-12T02:37:15.583Z,86.77
2023-05-12T02:38:17.506Z,86.92
2023-05-12T02:39:19.967Z,86.67
2023-05-12T02:40:21.673Z,87.20
2023-05-12T02:41:26.085Z,87.50
2023-05-12T02:42:30.990Z,87.08
2023-05-12T02:43:33.474Z,87.00
2023-05-12T02:44:35.823Z,86.96
2023-05-12T02:45:37.698Z,86.95
2023-05-12T02:46:39.763Z,86.98
2023-05-12T02:47:41.982Z,87.04
2023-05-12T02:48:44.411Z,86.92
2023-05-12T02:49:46.041Z,86.85
2023-05-12T02:50:48.713Z,87.04
2023-05-12T02:51:50.581Z,86.88
2023-05-12T02:52:52.227Z,87.15
2023-05-12T02:53:54.208Z,87.15
2023-05-12T02:54:56.836Z,86.85
2023-05-12T02:55:59.065Z,86.72
2023-05-12T02:57:05.452Z,86.68
2023-05-12T02:58:08.253Z,86.58
2023-05-12T02:59:10.756Z,86.54
2023-05-12T03:00:14.470Z,86.51
2023-05-12T03:01:16.482Z,86.93
2023-05-12T03:02:18.470Z,86.76
2023-05-12T03:03:20.505Z,86.66
2023-05-12T03:04:22.330Z,86.54
2023-05-12T03:05:24.722Z,86.59
2023-05-12T03:06:26.765Z,86.06
2023-05-12T03:07:28.841Z,86.09
2023-05-12T03:08:30.417Z,86.25
2023-05-12T03:09:32.435Z,86.11
2023-05-12T03:10:37.772Z,86.23
2023-05-12T03:11:39.696Z,86.28
2023-05-12T03:12:42.076Z,86.40
2023-05-12T03:13:46.683Z,86.89
2023-05-12T03:14:49.092Z,86.88
2023-05-12T03:15:50.711Z,86.64
2023-05-12T03:16:52.376Z,86.61
2023-05-12T03:17:54.477Z,86.60
2023-05-12T03:18:56.128Z,86.76
2023-05-12T03:19:57.827Z,87.11
2023-05-12T03:20:59.601Z,87.19
2023-05-12T03:22:01.933Z,87.19
2023-05-12T03:23:04.047Z,87.14
2023-05-12T03:24:06.040Z,87.33
2023-05-12T03:25:10.154Z,87.63
2023-05-12T03:26:11.784Z,87.47
2023-05-12T03:27:13.921Z,87.37
2023-05-12T03:28:16.108Z,87.26
2023-05-12T03:29:17.705Z,87.14
2023-05-12T03:30:19.942Z,87.33
2023-05-12T03:31:21.770Z,87.27
2023-05-12T03:32:23.801Z,87.29
2023-05-12T03:33:25.579Z,87.43
2023-05-12T03:34:30.477Z,87.10
2023-05-12T03:35:33.644Z,86.99
2023-05-12T03:36:37.496Z,87.08
2023-05-12T03:37:39.353Z,87.09
2023-05-12T03:38:41.802Z,86.89
2023-05-12T03:39:46.136Z,87.00
2023-05-12T03:40:52.548Z,86.97
2023-05-12T03:41:54.490Z,87.07
2023-05-12T03:42:56.091Z,87.40
2023-05-12T03:43:57.686Z,87.29
2023-05-12T03:44:59.467Z,87.43
2023-05-12T03:46:01.194Z,87.28
2023-05-12T03:47:02.882Z,87.26
2023-05-12T03:48:05.037Z,87.04
2023-05-12T03:49:06.674Z,87.26
2023-05-12T03:50:08.751Z,86.96
2023-05-12T03:51:10.625Z,86.83
2023-05-12T03:52:12.594Z,86.70
2023-05-12T03:53:15.089Z,86.63
2023-05-12T03:54:16.662Z,86.86
2023-05-12T03:55:18.640Z,87.06
2023-05-12T03:56:20.258Z,86.95
2023-05-12T03:57:22.678Z,86.74
2023-05-12T03:58:24.570Z,87.28
2023-05-12T03:59:26.230Z,87.25
2023-05-12T04:00:27.868Z,87.03
2023-05-12T04:01:29.544Z,87.07
2023-05-12T04:02:31.530Z,86.72
2023-05-12T04:03:33.438Z,86.74
2023-05-12T04:04:36.807Z,87.31
2023-05-12T04:05:39.646Z,87.56
2023-05-12T04:06:41.429Z,87.39
2023-05-12T04:07:43.053Z,87.20
2023-05-12T04:08:44.737Z,86.98
2023-05-12T04:09:46.576Z,86.80
2023-05-12T04:10:48.557Z,86.67
2023-05-12T04:11:51.241Z,86.91
2023-05-12T04:12:52.799Z,86.67
2023-05-12T04:13:55.511Z,86.84
2023-05-12T04:14:57.257Z,86.99
2023-05-12T04:15:59.773Z,86.89
2023-05-12T04:17:01.454Z,86.64
2023-05-12T04:18:03.827Z,86.88
2023-05-12T04:19:05.611Z,86.81
2023-05-12T04:20:10.686Z,86.61
2023-05-12T04:21:12.530Z,87.02
2023-05-12T04:22:14.200Z,87.55
2023-05-12T04:23:15.888Z,87.69
2023-05-12T04:24:17.984Z,88.26
2023-05-12T04:25:19.669Z,88.80
2023-05-12T04:26:22.048Z,88.81
2023-05-12T04:27:23.973Z,88.72
2023-05-12T04:28:25.917Z,88.63
2023-05-12T04:29:28.613Z,88.42
2023-05-12T04:30:30.927Z,88.07
2023-05-12T04:31:32.673Z,88.08
2023-05-12T04:32:34.953Z,88.83
2023-05-12T04:33:36.585Z,89.48
2023-05-12T04:34:40.229Z,89.56
2023-05-12T04:35:42.357Z,89.13
2023-05-12T04:36:46.399Z,88.90
2023-05-12T04:37:49.223Z,88.75
2023-05-12T04:38:51.568Z,88.35
2023-05-12T04:39:53.691Z,88.43
2023-05-12T04:40:59.674Z,89.42
2023-05-12T04:42:04.460Z,90.45
2023-05-12T04:43:08.362Z,89.55
2023-05-12T04:44:09.993Z,89.61
2023-05-12T04:45:11.921Z,89.67
2023-05-12T04:46:13.775Z,89.47
2023-05-12T04:47:15.489Z,89.73
2023-05-12T04:48:17.131Z,89.75
2023-05-12T04:49:20.904Z,89.49
2023-05-12T04:50:24.818Z,89.42
2023-05-12T04:51:26.736Z,89.43
2023-05-12T04:52:28.486Z,89.01
2023-05-12T04:53:34.601Z,89.21
2023-05-12T04:54:36.486Z,88.88
2023-05-12T04:55:38.254Z,88.87
2023-05-12T04:56:39.850Z,88.72
2023-05-12T04:57:42.602Z,88.99
2023-05-12T04:58:45.348Z,88.95
2023-05-12T04:59:46.994Z,89.06
2023-05-12T05:00:49.254Z,88.94
2023-05-12T05:01:51.292Z,89.25
2023-05-12T05:02:53.143Z,88.96
2023-05-12T05:03:55.162Z,88.86
2023-05-12T05:05:00.217Z,88.68
2023-05-12T05:06:01.890Z,88.76
2023-05-12T05:07:04.311Z,88.36
2023-05-12T05:08:06.543Z,88.06
2023-05-12T05:09:09.510Z,87.50
2023-05-12T05:10:11.297Z,87.38
2023-05-12T05:11:14.757Z,87.19
2023-05-12T05:12:16.708Z,87.02
2023-05-12T05:13:18.878Z,87.10
2023-05-12T05:14:20.571Z,87.03
2023-05-12T05:15:22.589Z,86.86
2023-05-12T05:16:24.752Z,86.67
2023-05-12T05:17:29.910Z,86.52
2023-05-12T05:18:31.655Z,86.29
2023-05-12T05:19:45.911Z,86.12
2023-05-12T05:20:58.417Z,85.41
2023-05-12T05:22:01.333Z,85.38
2023-05-12T05:23:03.176Z,85.41
2023-05-12T05:24:07.152Z,85.17
2023-05-12T05:25:10.837Z,85.11
2023-05-12T05:26:12.659Z,84.87
2023-05-12T05:27:14.341Z,84.73
2023-05-12T05:28:16.960Z,84.70
2023-05-12T05:29:18.805Z,84.48
2023-05-12T05:30:20.775Z,84.39
2023-05-12T05:31:22.960Z,83.67
2023-05-12T05:32:24.946Z,83.95
2023-05-12T05:33:27.713Z,83.83
2023-05-12T05:34:29.564Z,83.43
2023-05-12T05:35:31.580Z,83.66
2023-05-12T05:36:34.170Z,83.07
2023-05-12T05:37:35.825Z,83.01
2023-05-12T05:38:37.604Z,82.82
2023-05-12T05:39:39.359Z,82.48
2023-05-12T05:40:52.094Z,82.07
2023-05-12T05:41:56.103Z,81.75
2023-05-12T05:42:57.894Z,81.55
2023-05-12T05:43:59.951Z,81.62
2023-05-12T05:45:01.602Z,81.63
2023-05-12T05:46:03.543Z,81.52
2023-05-12T05:47:05.486Z,81.46
2023-05-12T05:48:07.290Z,80.47
2023-05-12T05:49:08.933Z,81.13
2023-05-12T05:50:10.818Z,80.94
2023-05-12T05:51:15.068Z,80.19
2023-05-12T05:52:16.888Z,80.52
2023-05-12T05:53:19.916Z,79.87
2023-05-12T05:54:24.851Z,79.40
2023-05-12T05:55:26.519Z,79.67
2023-05-12T05:56:30.281Z,79.88
2023-05-12T05:57:32.246Z,79.78
2023-05-12T05:58:34.744Z,79.59
2023-05-12T05:59:38.509Z,79.52
2023-05-12T06:00:40.194Z,79.67
2023-05-12T06:01:41.882Z,79.51
2023-05-12T06:02:45.134Z,79.71
2023-05-12T06:03:51.437Z,79.83
2023-05-12T06:04:53.332Z,79.73
2023-05-12T06:05:55.106Z,79.15
2023-05-12T06:06:57.913Z,78.78
2023-05-12T06:07:59.640Z,78.86
2023-05-12T06:09:01.216Z,79.04
2023-05-12T06:10:04.175Z,79.33
2023-05-12T06:11:05.833Z,79.19
2023-05-12T06:12:07.964Z,78.88
2023-05-12T06:13:09.711Z,79.30
2023-05-12T06:14:11.711Z,79.61
2023-05-12T06:15:13.501Z,79.34
2023-05-12T06:16:15.102Z,78.65
2023-05-12T06:17:17.708Z,78.23
2023-05-12T06:18:19.617Z,77.38
2023-05-12T06:19:21.610Z,77.44
2023-05-12T06:20:24.584Z,77.43
2023-05-12T06:21:26.235Z,77.24
2023-05-12T06:22:28.136Z,77.53
2023-05-12T06:23:29.879Z,77.53
2023-05-12T06:24:31.506Z,77.63
2023-05-12T06:25:35.796Z,77.26
2023-05-12T06:26:38.070Z,75.74
2023-05-12T06:27:39.765Z,75.71
2023-05-12T06:28:41.355Z,75.38
2023-05-12T06:29:42.931Z,74.92
2023-05-12T06:30:45.329Z,75.12
2023-05-12T06:31:47.208Z,73.57
2023-05-12T06:32:50.726Z,74.44
2023-05-12T06:33:52.342Z,74.23
2023-05-12T06:34:53.995Z,74.15
2023-05-12T06:35:55.563Z,74.31
2023-05-12T06:36:57.172Z,74.52
2023-05-12T06:37:59.024Z,74.38
2023-05-12T06:39:00.662Z,73.27
2023-05-12T06:40:02.275Z,73.46
2023-05-12T06:41:04.260Z,74.07
2023-05-12T06:42:06.154Z,73.00
2023-05-12T06:43:15.341Z,72.03
2023-05-12T06:44:19.798Z,72.82
2023-05-12T06:45:26.667Z,72.90
2023-05-12T06:46:28.668Z,72.93
2023-05-12T06:47:30.360Z,72.47
2023-05-12T06:48:32.412Z,72.04
2023-05-12T06:49:37.041Z,72.10
2023-05-12T06:50:38.817Z,72.11
2023-05-12T06:51:40.392Z,70.96
2023-05-12T06:52:45.593Z,71.33
2023-05-12T06:53:47.468Z,71.46
2023-05-12T06:54:51.075Z,71.54
2023-05-12T06:55:55.041Z,71.94
2023-05-12T06:56:56.749Z,70.11
2023-05-12T06:57:58.562Z,70.10
2023-05-12T06:59:02.595Z,70.11
2023-05-12T07:00:05.039Z,71.09
2023-05-12T07:01:06.729Z,71.18
2023-05-12T07:02:08.547Z,70.41
2023-05-12T07:03:10.716Z,70.29
2023-05-12T07:04:12.557Z,70.41
2023-05-12T07:05:14.424Z,69.55
2023-05-12T07:06:17.697Z,69.21
2023-05-12T07:07:19.469Z,69.35
2023-05-12T07:08:21.056Z,69.50
2023-05-12T07:09:22.911Z,69.64
2023-05-12T07:10:24.719Z,68.82
2023-05-12T07:11:26.872Z,68.85
2023-05-12T07:12:28.587Z,69.30
2023-05-12T07:13:30.245Z,69.31
2023-05-12T07:14:32.085Z,69.58
2023-05-12T07:15:33.857Z,69.75
2023-05-12T07:16:35.543Z,69.80
2023-05-12T07:17:37.382Z,69.50
2023-05-12T07:18:39.206Z,68.36
2023-05-12T07:19:40.877Z,68.44
2023-05-12T07:20:42.621Z,68.13
2023-05-12T07:21:44.582Z,68.67
2023-05-12T07:22:46.147Z,68.11
2023-05-12T07:23:48.167Z,68.56
2023-05-12T07:24:50.289Z,68.60
2023-05-12T07:25:51.851Z,67.76
2023-05-12T07:26:53.618Z,68.06
2023-05-12T07:27:55.200Z,68.08
2023-05-12T07:29:00.697Z,66.91
2023-05-12T07:30:05.418Z,67.26
2023-05-12T07:31:08.334Z,66.56
2023-05-12T07:32:09.972Z,66.81
2023-05-12T07:33:11.566Z,65.92
2023-05-12T07:34:13.411Z,66.20
2023-05-12T07:35:15.033Z,65.00
2023-05-12T07:36:16.633Z,64.69
2023-05-12T07:37:18.587Z,65.48
2023-05-12T07:38:20.418Z,64.20
2023-05-12T07:39:24.041Z,62.49
2023-05-12T07:40:25.928Z,62.75
2023-05-12T07:41:27.533Z,63.04
2023-05-12T07:42:29.192Z,64.30
2023-05-12T07:43:30.793Z,64.82
2023-05-12T07:44:33.689Z,63.36
2023-05-12T07:45:35.873Z,64.54
2023-05-12T07:46:37.558Z,64.45
2023-05-12T07:47:39.512Z,64.50
2023-05-12T07:48:41.635Z,63.95
2023-05-12T07:49:43.596Z,64.42
2023-05-12T07:50:45.777Z,63.55
2023-05-12T07:51:47.599Z,64.26
2023-05-12T07:52:51.029Z,64.24
2023-05-12T07:53:53.065Z,64.44
2023-05-12T07:54:56.767Z,61.54
2023-05-12T07:56:00.905Z,62.37
2023-05-12T07:57:02.557Z,61.68
2023-05-12T07:58:04.315Z,61.36
2023-05-12T07:59:06.377Z,62.41
2023-05-12T08:00:09.256Z,63.13
2023-05-12T08:01:15.111Z,62.87
2023-05-12T08:02:17.510Z,63.73
2023-05-12T08:03:19.663Z,63.77
2023-05-12T08:04:21.446Z,64.06
2023-05-12T08:05:23.473Z,63.67
2023-05-12T08:06:26.920Z,63.73
2023-05-12T08:07:28.997Z,62.28
2023-05-12T08:08:31.846Z,62.57
2023-05-12T08:09:33.841Z,63.03
2023-05-12T08:10:35.506Z,63.09
2023-05-12T08:11:37.137Z,63.59
2023-05-12T08:12:42.981Z,64.40
2023-05-12T08:13:45.303Z,62.80
2023-05-12T08:14:47.222Z,62.69
2023-05-12T08:15:49.975Z,63.29
2023-05-12T08:16:51.604Z,63.25
2023-05-12T08:17:53.478Z,61.21
2023-05-12T08:18:55.205Z,62.08
2023-05-12T08:19:56.864Z,62.40
2023-05-12T08:20:58.617Z,62.75
2023-05-12T08:22:00.213Z,63.15
2023-05-12T08:23:01.760Z,62.95
2023-05-12T08:24:03.721Z,62.76
2023-05-12T08:25:06.951Z,63.04
2023-05-12T08:26:08.631Z,62.40
2023-05-12T08:27:11.167Z,62.85
2023-05-12T08:28:12.955Z,63.13
2023-05-12T08:29:15.637Z,63.45
2023-05-12T08:30:17.623Z,63.67
2023-05-12T08:31:19.605Z,61.72
2023-05-12T08:32:21.281Z,62.09
2023-05-12T08:33:23.472Z,62.04
2023-05-12T08:34:25.823Z,62.74
2023-05-12T08:35:28.481Z,63.38
2023-05-12T08:36:30.809Z,62.05
2023-05-12T08:37:34.598Z,60.63
2023-05-12T08:38:36.664Z,59.93
2023-05-12T08:39:38.300Z,61.13
2023-05-12T08:40:56.829Z,61.33
2023-05-12T08:42:21.312Z,61.12
2023-05-12T08:43:30.585Z,61.68
2023-05-12T08:44:32.778Z,61.67
2023-05-12T08:45:38.577Z,59.56
2023-05-12T08:46:40.999Z,60.91
2023-05-12T08:47:43.908Z,61.59
2023-05-12T08:48:49.549Z,59.65
2023-05-12T08:50:00.719Z,57.95
2023-05-12T08:51:03.785Z,58.00
2023-05-12T08:52:08.581Z,59.52
2023-05-12T08:53:12.521Z,57.86
2023-05-12T08:54:15.534Z,57.79
2023-05-12T08:55:18.239Z,59.42
2023-05-12T08:57:29.441Z,61.06
2023-05-12T08:58:40.923Z,60.51
2023-05-12T08:59:44.979Z,59.33
2023-05-12T09:00:52.098Z,58.12
2023-05-12T09:02:02.417Z,58.73
2023-05-12T09:03:06.093Z,57.84
2023-05-12T09:04:07.769Z,58.18
2023-05-12T09:05:10.029Z,57.64
2023-05-12T09:06:12.117Z,56.37
2023-05-12T09:07:14.776Z,57.30
2023-05-12T09:08:16.558Z,56.13
2023-05-12T09:09:20.038Z,56.18
2023-05-12T09:11:27.188Z,55.83
2023-05-12T09:12:32.448Z,56.49
2023-05-12T09:14:11.530Z,57.37
2023-05-12T09:15:19.414Z,58.38
2023-05-12T09:16:25.728Z,58.35
2023-05-12T09:17:27.507Z,58.72
2023-05-12T09:18:59.586Z,58.96
2023-05-12T09:20:01.728Z,60.72
2023-05-12T09:21:03.677Z,60.71
2023-05-12T09:22:05.640Z,60.66
2023-05-12T09:23:18.922Z,60.24
2023-05-12T09:24:21.085Z,60.99
2023-05-12T09:25:23.055Z,60.65
2023-05-12T09:26:28.806Z,60.16
2023-05-12T09:27:30.698Z,59.85
2023-05-12T09:28:39.113Z,57.60
2023-05-12T09:29:59.184Z,56.94
2023-05-12T09:31:01.482Z,57.29
2023-05-12T09:32:04.584Z,56.55
2023-05-12T09:33:07.805Z,57.95
2023-05-12T09:34:10.067Z,57.78
2023-05-12T09:35:11.646Z,56.86
2023-05-12T09:36:21.805Z,55.13
2023-05-12T09:37:31.645Z,54.89
2023-05-12T09:38:34.378Z,55.91
2023-05-12T09:39:36.586Z,54.95
2023-05-12T09:40:38.966Z,56.57
2023-05-12T09:41:42.009Z,54.38
2023-05-12T09:42:44.169Z,52.82
2023-05-12T09:43:46.446Z,53.84
2023-05-12T09:44:48.827Z,54.10
2023-05-12T09:45:50.708Z,51.60
2023-05-12T09:46:52.800Z,52.54
2023-05-12T09:47:55.041Z,53.57
2023-05-12T09:48:57.801Z,52.05
2023-05-12T09:50:01.725Z,49.20
2023-05-12T09:51:04.336Z,49.58
2023-05-12T09:52:06.104Z,48.91
2023-05-12T09:53:08.020Z,50.68
2023-05-12T09:54:09.944Z,50.34
2023-05-12T09:55:12.862Z,50.01
2023-05-12T09:56:15.478Z,49.96
2023-05-12T09:57:19.028Z,50.11
2023-05-12T09:58:22.193Z,49.49
2023-05-12T09:59:27.096Z,50.35
2023-05-12T10:00:46.169Z,50.47
2023-05-12T10:01:51.992Z,51.36
2023-05-12T10:02:54.656Z,49.31
2023-05-12T10:03:57.856Z,50.35
2023-05-12T10:05:06.138Z,49.34
2023-05-12T10:06:14.038Z,48.63
2023-05-12T10:07:17.403Z,50.12
2023-05-12T10:08:27.453Z,48.25
2023-05-12T10:09:34.163Z,49.02
2023-05-12T10:10:36.451Z,47.97
2023-05-12T10:11:38.638Z,48.11
2023-05-12T10:12:41.504Z,49.04
2023-05-12T10:13:43.687Z,47.88
2023-05-12T10:14:46.355Z,47.60
2023-05-12T10:15:49.804Z,48.43
2023-05-12T10:16:52.722Z,48.83
2023-05-12T10:17:55.466Z,49.17
2023-05-12T10:18:57.799Z,49.91
2023-05-12T10:19:59.943Z,50.68
2023-05-12T10:21:03.397Z,51.32
2023-05-12T10:22:09.951Z,47.91
2023-05-12T10:23:13.611Z,48.54
2023-05-12T10:24:16.832Z,49.21
2023-05-12T10:25:19.694Z,50.86
2023-05-12T10:26:21.858Z,50.40
2023-05-12T10:27:25.189Z,51.45
2023-05-12T10:28:26.783Z,49.12
2023-05-12T10:29:30.507Z,47.85
2023-05-12T10:30:33.618Z,48.28
2023-05-12T10:31:37.592Z,49.03
2023-05-12T10:32:40.141Z,49.28
2023-05-12T10:33:41.767Z,49.20
2023-05-12T10:34:44.258Z,49.23
2023-05-12T10:35:48.619Z,49.76
2023-05-12T10:36:52.409Z,49.02
2023-05-12T10:37:54.414Z,49.13
2023-05-12T10:39:04.287Z,50.42
2023-05-12T10:40:07.171Z,49.05
2023-05-12T10:41:08.956Z,48.26
2023-05-12T10:42:10.620Z,48.07
2023-05-12T10:43:21.836Z,48.16
2023-05-12T10:44:30.176Z,49.23
2023-05-12T10:45:37.412Z,47.44
2023-05-12T10:46:39.277Z,49.12
2023-05-12T10:47:43.043Z,47.76
2023-05-12T10:49:00.089Z,46.39
2023-05-12T10:50:01.848Z,47.66
2023-05-12T10:51:08.718Z,47.71
2023-05-12T10:52:19.673Z,47.54
2023-05-12T10:53:38.024Z,47.50
2023-05-12T10:54:47.621Z,47.88
2023-05-12T10:55:52.270Z,47.73
2023-05-12T10:56:58.949Z,47.12
2023-05-12T10:58:05.917Z,47.42
2023-05-12T10:59:20.516Z,47.48
2023-05-12T11:00:26.922Z,48.57
2023-05-12T11:01:29.791Z,48.97
2023-05-12T11:02:34.471Z,48.37
2023-05-12T11:03:38.619Z,48.26
2023-05-12T11:04:53.377Z,49.08
2023-05-12T11:06:03.041Z,49.31
2023-05-12T11:07:08.059Z,48.41
2023-05-12T11:08:11.447Z,48.44
2023-05-12T11:09:15.429Z,46.28
2023-05-12T11:10:18.116Z,46.08
2023-05-12T11:11:22.396Z,47.05
2023-05-12T11:12:26.710Z,47.49
2023-05-12T11:13:29.210Z,45.83
2023-05-12T11:14:31.432Z,45.16
2023-05-12T11:15:33.184Z,46.50
2023-05-12T11:16:41.118Z,45.38
2023-05-12T11:17:42.876Z,46.70
2023-05-12T11:18:44.583Z,46.43
2023-05-12T11:19:48.761Z,45.33
2023-05-12T11:20:51.509Z,46.62
2023-05-12T11:21:53.295Z,43.99
2023-05-12T11:22:55.004Z,45.91
2023-05-12T11:23:57.584Z,45.71
2023-05-12T11:25:09.493Z,44.60
2023-05-12T11:26:19.495Z,44.22
2023-05-12T11:27:23.333Z,46.03
2023-05-12T11:28:25.474Z,45.98
2023-05-12T11:29:27.490Z,46.66
2023-05-12T11:30:29.220Z,45.06
2023-05-12T11:31:31.054Z,46.17
2023-05-12T11:32:32.769Z,45.87
2023-05-12T11:33:34.453Z,46.83
2023-05-12T11:34:36.030Z,47.10
2023-05-12T11:35:37.581Z,47.32
2023-05-12T11:36:43.962Z,46.91
2023-05-12T11:38:51.474Z,46.23
2023-05-12T11:39:53.519Z,43.41
2023-05-12T11:40:55.184Z,44.47
2023-05-12T11:42:12.916Z,46.00
2023-05-12T11:43:20.536Z,44.05
2023-05-12T11:44:24.542Z,44.73
2023-05-12T11:45:28.877Z,46.02
2023-05-12T11:46:30.854Z,46.18
2023-05-12T11:47:32.496Z,45.72
2023-05-12T11:48:35.653Z,46.01
2023-05-12T11:49:57.244Z,46.86
2023-05-12T11:50:58.971Z,45.80
2023-05-12T11:52:02.603Z,46.01
2023-05-12T11:53:04.982Z,45.94
2023-05-12T11:54:07.034Z,45.92
2023-05-12T11:55:10.299Z,43.33
2023-05-12T11:56:18.767Z,43.09
2023-05-12T11:57:31.847Z,43.79
2023-05-12T11:58:35.138Z,44.66
2023-05-12T11:59:37.416Z,44.98
2023-05-12T12:00:40.167Z,43.80
2023-05-12T12:01:46.678Z,44.69
2023-05-12T12:02:49.268Z,44.93
2023-05-12T12:03:53.304Z,44.42
2023-05-12T12:04:55.600Z,44.90
2023-05-12T12:06:02.353Z,43.80
2023-05-12T12:07:05.787Z,44.22
2023-05-12T12:08:10.515Z,45.61
2023-05-12T12:09:12.436Z,45.98
2023-05-12T12:10:15.913Z,44.95
2023-05-12T12:11:21.510Z,44.80
2023-05-12T12:12:23.883Z,44.66
2023-05-12T12:13:26.334Z,44.92
2023-05-12T12:14:28.242Z,45.45
2023-05-12T12:15:30.015Z,45.37
2023-05-12T12:16:32.508Z,45.01
2023-05-12T12:17:34.524Z,44.99
2023-05-12T12:18:36.333Z,44.14
2023-05-12T12:19:37.946Z,45.34
2023-05-12T12:20:39.695Z,44.84
2023-05-12T12:21:42.666Z,44.57
2023-05-12T12:22:44.997Z,43.89
2023-05-12T12:23:51.261Z,45.13
2023-05-12T12:24:53.746Z,44.62
2023-05-12T12:25:55.420Z,45.44
2023-05-12T12:26:57.149Z,44.48
2023-05-12T12:27:58.840Z,45.11
2023-05-12T12:29:00.394Z,45.25
2023-05-12T12:30:02.480Z,44.38
2023-05-12T12:31:04.683Z,44.41
2023-05-12T12:32:06.447Z,43.67
2023-05-12T12:33:08.116Z,44.22
2023-05-12T12:34:10.384Z,44.44
2023-05-12T12:35:13.476Z,43.31
2023-05-12T12:36:15.234Z,43.10
2023-05-12T12:37:17.254Z,43.33
2023-05-12T12:38:19.027Z,44.13
2023-05-12T12:39:21.741Z,43.89
2023-05-12T12:40:23.630Z,43.60
2023-05-12T12:41:25.942Z,43.90
2023-05-12T12:42:27.787Z,43.84
2023-05-12T12:43:29.597Z,43.64
2023-05-12T12:44:31.178Z,42.46
2023-05-12T12:45:32.787Z,42.18
2023-05-12T12:46:34.715Z,42.81
2023-05-12T12:47:38.905Z,43.35
2023-05-12T12:48:40.639Z,44.19
2023-05-12T12:49:42.492Z,44.27
2023-05-12T12:50:44.203Z,44.31
2023-05-12T12:51:47.125Z,44.48
2023-05-12T12:52:49.281Z,44.25
2023-05-12T12:53:50.996Z,44.25
2023-05-12T12:54:52.757Z,44.21
2023-05-12T12:55:54.320Z,43.46
2023-05-12T12:56:56.550Z,44.10
2023-05-12T12:57:58.590Z,44.68
2023-05-12T12:59:00.217Z,45.18
2023-05-12T13:00:03.704Z,45.25
2023-05-12T13:01:05.341Z,45.81
2023-05-12T13:02:07.000Z,43.32
2023-05-12T13:03:08.992Z,43.42
2023-05-12T13:04:10.731Z,42.66
2023-05-12T13:05:13.074Z,43.14
2023-05-12T13:06:15.248Z,42.92
2023-05-12T13:07:17.077Z,42.83
2023-05-12T13:08:19.672Z,43.26
2023-05-12T13:09:21.330Z,44.05
2023-05-12T13:10:23.031Z,44.64
2023-05-12T13:11:25.197Z,44.50
2023-05-12T13:12:28.288Z,44.30
2023-05-12T13:13:30.146Z,44.56
2023-05-12T13:14:31.834Z,44.76
2023-05-12T13:15:33.533Z,44.76
2023-05-12T13:16:35.129Z,45.11
2023-05-12T13:17:36.753Z,45.50
2023-05-12T13:18:38.798Z,46.26
2023-05-12T13:19:40.598Z,46.50
2023-05-12T13:20:42.538Z,46.10
2023-05-12T13:21:44.489Z,46.04
2023-05-12T13:22:46.048Z,46.38
2023-05-12T13:23:47.686Z,45.56
2023-05-12T13:24:49.887Z,46.37
2023-05-12T13:25:52.186Z,46.06
2023-05-12T13:26:53.840Z,45.14
2023-05-12T13:27:55.653Z,45.58
2023-05-12T13:28:57.416Z,44.89
2023-05-12T13:29:59.071Z,44.62
2023-05-12T13:31:00.875Z,44.97
2023-05-12T13:32:03.852Z,43.78
2023-05-12T13:33:06.338Z,43.19
2023-05-12T13:34:08.438Z,43.11
2023-05-12T13:35:10.106Z,43.30
2023-05-12T13:36:12.263Z,43.51
2023-05-12T13:37:13.989Z,43.43